Bob Hope Airport
KBUR : now visible

Airfield :











YOU CAN JOIN US ON...

 
LOGIN :

Register | Disclaimer

   EN    FR    IT 

 









Legend :    VFR   Marginal VFR   IFR   Intensive IFR   Very Intensive IFR
Visi :
Ceiling :
>= 8 km
>= 3000ft
5 to 8 km
1000 to 3000 ft
1500m to 5 km
500 to 1000 ft
800 to 1500m
200 to 500 ft
< 800m
< 200 ft
Symbols :   Thunderstorms  Fog  Heavy snow  Heavy precipitations  Wind > 20 kt






- Airport Elevation : 778 ft
- IATA code : BUR


KBUR - Bob Hope

CURRENT METAR :
  • 300953Z 11006KT 10SM -RA FEW020 BKN027 OVC036 08/06 A2992 RMK AO2 SLP107 P0003 T00780061 $

EXPIRED METARs :
  • 300934Z 13006KT 7SM -RA SCT022 BKN027 OVC033 08/07 A2992 RMK AO2 P0002 T00830067 $
  • 300853Z 11005KT 5SM RA BR FEW008 BKN030 OVC040 08/07 A2992 RMK AO2 PRESFR SLP107 P0008 60026 T00780072 58006 $
  • 300810Z 15006KT 5SM RA BR SCT008 BKN020 OVC032 08/07 A2990 RMK AO2 P0003 T00830072
  • 300753Z 14005KT 5SM RA BR FEW022 BKN031 OVC036 08/07 A2991 RMK AO2 SLP121 P0007 T00830067 401330078

TAF KBUR
Valid from the 30 at 09:00 until the 31 at 06:00 UTC


300908Z 3009/3106 14008KT 5SM -RA BR SCT015 OVC030
FM301200 14006KT P6SM -SHRA OVC015
FM301800 11006KT P6SM VCSH OVC025
FM302100 05009KT P6SM OVC035
FM310300 04006KT P6SM SCT040
KZLA FIR / North America



MET'MAP, your aeronautical weather chart ! - Copyright ORBIFLY December 2007 - Disclaimer

ORBIFLY MET'MAP TEAM :

Programming & Development : Alexandra Zaïnal
Original concept : Baudouin d'Aumeries
Technical & hardware support : Manuel Goepfert
Assistance : Marc-Olivier Méhu




SOURCES & CREDITS :

   NOAA       Earth
Advisory